Wakulla Springs, Florida
Current Conditions -  °F | °C
As of 8:34 PM on Tuesday 25 Nov 2014 (Local Time) from KTLH Reporting Station
Overcast Overcast  
Wind Chill: 52°   Ceiling: 1500
Heat Index: 52°   Visibility: 10mi
Dew Point: 47°   Wind: 12mph
Humidity: 83%   Direction: 340°NNW
Pressure: 30.01"   Gusts: NA
Location:  30.23°N, 84.31°W
Report Text: KTLH 260134Z 34010KT 10SM SCT010 OVC015 11/08 A3001 RMK AO2 T01110083 $
Loading
Personal Weather Stations






























Interactive Weather Map New forecast layout! Learn more

10-Day Weather Forecast

Advertisements
Track Severe Weather on mobile